sensor_id;sensor_type;location;lat;lon;timestamp;pressure;altitude;pressure_sealevel;temperature;humidity
14273;BME280;7220;49.450;11.052;2023-01-28T00:00:41;98755.72;;;0.90;100.00
14273;BME280;7220;49.450;11.052;2023-01-28T00:04:42;98762.69;;;0.91;100.00
14273;BME280;7220;49.450;11.052;2023-01-28T00:08:43;98748.72;;;0.97;100.00
14273;BME280;7220;49.450;11.052;2023-01-28T00:12:43;98748.66;;;1.04;100.00
14273;BME280;7220;49.450;11.052;2023-01-28T00:16:44;98738.22;;;1.01;100.00
14273;BME280;7220;49.450;11.052;2023-01-28T00:20:57;98741.66;;;1.09;100.00
14273;BME280;7220;49.450;11.052;2023-01-28T00:24:58;98748.63;;;1.07;100.00
14273;BME280;7220;49.450;11.052;2023-01-28T00:28:58;98748.63;;;1.10;100.00
14273;BME280;7220;49.450;11.052;2023-01-28T00:32:59;98744.22;;;1.16;100.00
14273;BME280;7220;49.450;11.052;2023-01-28T00:36:59;98747.69;;;1.18;100.00
14273;BME280;7220;49.450;11.052;2023-01-28T00:41:14;98742.44;;;1.19;100.00
14273;BME280;7220;49.450;11.052;2023-01-28T00:45:15;98738.88;;;1.30;99.80
14273;BME280;7220;49.450;11.052;2023-01-28T00:49:15;98749.31;;;1.33;99.10
14273;BME280;7220;49.450;11.052;2023-01-28T00:53:15;98738.00;;;1.29;99.39
14273;BME280;7220;49.450;11.052;2023-01-28T00:57:16;98743.16;;;1.38;98.92
14273;BME280;7220;49.450;11.052;2023-01-28T01:01:19;98745.75;;;1.45;98.92
14273;BME280;7220;49.450;11.052;2023-01-28T01:05:20;98738.94;;;1.23;99.73
14273;BME280;7220;49.450;11.052;2023-01-28T01:09:20;98758.09;;;1.29;99.97
14273;BME280;7220;49.450;11.052;2023-01-28T01:13:21;98758.94;;;1.29;99.41
14273;BME280;7220;49.450;11.052;2023-01-28T01:17:21;98760.63;;;1.36;99.25
14273;BME280;7220;49.450;11.052;2023-01-28T01:21:25;98758.94;;;1.35;99.64
14273;BME280;7220;49.450;11.052;2023-01-28T01:25:26;98757.94;;;1.52;98.83
14273;BME280;7220;49.450;11.052;2023-01-28T01:29:26;98757.06;;;1.47;98.58
14273;BME280;7220;49.450;11.052;2023-01-28T01:33:28;98754.44;;;1.51;98.79
14273;BME280;7220;49.450;11.052;2023-01-28T01:37:28;98759.88;;;1.22;99.55
14273;BME280;7220;49.450;11.052;2023-01-28T01:41:31;98767.78;;;1.13;100.00
14273;BME280;7220;49.450;11.052;2023-01-28T01:45:32;98767.72;;;1.22;100.00
14273;BME280;7220;49.450;11.052;2023-01-28T01:49:33;98774.75;;;1.20;100.00
14273;BME280;7220;49.450;11.052;2023-01-28T01:53:36;98773.88;;;1.19;100.00
14273;BME280;7220;49.450;11.052;2023-01-28T01:57:39;98780.81;;;1.22;100.00
14273;BME280;7220;49.450;11.052;2023-01-28T02:01:41;98786.00;;;1.31;100.00
14273;BME280;7220;49.450;11.052;2023-01-28T02:05:44;98789.50;;;1.32;100.00
14273;BME280;7220;49.450;11.052;2023-01-28T02:09:45;98785.16;;;1.28;100.00
14273;BME280;7220;49.450;11.052;2023-01-28T02:13:48;98779.94;;;1.26;100.00
14273;BME280;7220;49.450;11.052;2023-01-28T02:17:50;98780.75;;;1.34;100.00
14273;BME280;7220;49.450;11.052;2023-01-28T02:30:37;98781.50;;;1.49;100.00
14273;BME280;7220;49.450;11.052;2023-01-28T02:34:55;98777.16;;;1.45;100.00
14273;BME280;7220;49.450;11.052;2023-01-28T02:39:02;98774.47;;;1.54;100.00
14273;BME280;7220;49.450;11.052;2023-01-28T02:43:05;98777.97;;;1.53;100.00
14273;BME280;7220;49.450;11.052;2023-01-28T02:47:10;98779.88;;;1.35;100.00
14273;BME280;7220;49.450;11.052;2023-01-28T02:51:42;98778.94;;;1.42;100.00
14273;BME280;7220;49.450;11.052;2023-01-28T03:04:15;98786.78;;;1.47;100.00
14273;BME280;7220;49.450;11.052;2023-01-28T03:08:18;98793.75;;;1.47;100.00
14273;BME280;7220;49.450;11.052;2023-01-28T03:12:39;98797.19;;;1.55;100.00
14273;BME280;7220;49.450;11.052;2023-01-28T03:17:00;98795.44;;;1.57;100.00
14273;BME280;7220;49.450;11.052;2023-01-28T03:21:24;98805.91;;;1.57;100.00
14273;BME280;7220;49.450;11.052;2023-01-28T03:25:48;98794.56;;;1.58;100.00
14273;BME280;7220;49.450;11.052;2023-01-28T03:30:14;98801.50;;;1.64;100.00
14273;BME280;7220;49.450;11.052;2023-01-28T03:34:34;98804.22;;;1.50;100.00
14273;BME280;7220;49.450;11.052;2023-01-28T03:38:53;98813.81;;;1.49;100.00
14273;BME280;7220;49.450;11.052;2023-01-28T03:42:53;98819.81;;;1.62;100.00
14273;BME280;7220;49.450;11.052;2023-01-28T03:46:55;98814.75;;;1.44;100.00
14273;BME280;7220;49.450;11.052;2023-01-28T03:50:56;98825.16;;;1.50;100.00
14273;BME280;7220;49.450;11.052;2023-01-28T03:54:58;98825.19;;;1.48;100.00
14273;BME280;7220;49.450;11.052;2023-01-28T03:58:59;98825.97;;;1.56;100.00
14273;BME280;7220;49.450;11.052;2023-01-28T04:03:00;98817.38;;;1.44;100.00
14273;BME280;7220;49.450;11.052;2023-01-28T04:07:00;98825.13;;;1.53;100.00
14273;BME280;7220;49.450;11.052;2023-01-28T04:11:00;98836.53;;;1.47;100.00
14273;BME280;7220;49.450;11.052;2023-01-28T04:15:15;98829.56;;;1.46;100.00
14273;BME280;7220;49.450;11.052;2023-01-28T04:19:15;98836.53;;;1.46;100.00
14273;BME280;7220;49.450;11.052;2023-01-28T04:23:16;98837.44;;;1.41;100.00
14273;BME280;7220;49.450;11.052;2023-01-28T04:27:16;98842.63;;;1.49;100.00
14273;BME280;7220;49.450;11.052;2023-01-28T04:31:16;98844.38;;;1.52;100.00
14273;BME280;7220;49.450;11.052;2023-01-28T04:35:17;98845.25;;;1.49;100.00
14273;BME280;7220;49.450;11.052;2023-01-28T04:39:18;98857.41;;;1.56;100.00
14273;BME280;7220;49.450;11.052;2023-01-28T04:43:18;98851.31;;;1.56;100.00
14273;BME280;7220;49.450;11.052;2023-01-28T04:47:19;98853.06;;;1.57;100.00
14273;BME280;7220;49.450;11.052;2023-01-28T04:51:19;98846.94;;;1.55;100.00
14273;BME280;7220;49.450;11.052;2023-01-28T04:55:20;98846.06;;;1.56;100.00
14273;BME280;7220;49.450;11.052;2023-01-28T04:59:20;98853.94;;;1.59;100.00
14273;BME280;7220;49.450;11.052;2023-01-28T05:03:20;98851.50;;;1.28;100.00
14273;BME280;7220;49.450;11.052;2023-01-28T05:07:21;98854.97;;;1.30;100.00
14273;BME280;7220;49.450;11.052;2023-01-28T05:11:21;98860.25;;;1.22;100.00
14273;BME280;7220;49.450;11.052;2023-01-28T05:15:21;98854.13;;;1.25;100.00
14273;BME280;7220;49.450;11.052;2023-01-28T05:19:22;98859.38;;;1.25;100.00
14273;BME280;7220;49.450;11.052;2023-01-28T05:23:22;98860.25;;;1.22;100.00
14273;BME280;7220;49.450;11.052;2023-01-28T05:27:22;98855.00;;;1.27;100.00
14273;BME280;7220;49.450;11.052;2023-01-28T05:31:23;98855.81;;;1.34;100.00
14273;BME280;7220;49.450;11.052;2023-01-28T05:35:23;98864.56;;;1.34;100.00
14273;BME280;7220;49.450;11.052;2023-01-28T05:39:24;98870.63;;;1.36;100.00
14273;BME280;7220;49.450;11.052;2023-01-28T05:43:24;98862.78;;;1.38;100.00
14273;BME280;7220;49.450;11.052;2023-01-28T05:47:24;98861.91;;;1.40;100.00
14273;BME280;7220;49.450;11.052;2023-01-28T05:51:24;98867.13;;;1.40;100.00
14273;BME280;7220;49.450;11.052;2023-01-28T05:55:25;98864.53;;;1.39;100.00
14273;BME280;7220;49.450;11.052;2023-01-28T05:59:25;98869.75;;;1.40;100.00
14273;BME280;7220;49.450;11.052;2023-01-28T06:03:27;98869.72;;;1.42;100.00
14273;BME280;7220;49.450;11.052;2023-01-28T06:07:27;98877.59;;;1.44;100.00
14273;BME280;7220;49.450;11.052;2023-01-28T06:11:27;98867.97;;;1.44;100.00
14273;BME280;7220;49.450;11.052;2023-01-28T06:15:28;98885.47;;;1.44;100.00
14273;BME280;7220;49.450;11.052;2023-01-28T06:19:28;98881.97;;;1.43;100.00
14273;BME280;7220;49.450;11.052;2023-01-28T06:23:28;98878.47;;;1.39;100.00
14273;BME280;7220;49.450;11.052;2023-01-28T06:27:28;98889.84;;;1.40;100.00
14273;BME280;7220;49.450;11.052;2023-01-28T06:31:29;98896.81;;;1.39;100.00
14273;BME280;7220;49.450;11.052;2023-01-28T06:35:29;98906.44;;;1.39;100.00
14273;BME280;7220;49.450;11.052;2023-01-28T06:39:30;98905.59;;;1.32;100.00
14273;BME280;7220;49.450;11.052;2023-01-28T06:43:31;98912.59;;;1.27;100.00
14273;BME280;7220;49.450;11.052;2023-01-28T06:47:32;98916.06;;;1.32;100.00
14273;BME280;7220;49.450;11.052;2023-01-28T06:51:32;98916.06;;;1.35;100.00
14273;BME280;7220;49.450;11.052;2023-01-28T06:55:32;98914.28;;;1.40;100.00
14273;BME280;7220;49.450;11.052;2023-01-28T06:59:33;98928.25;;;1.42;100.00
14273;BME280;7220;49.450;11.052;2023-01-28T07:03:33;98934.28;;;1.54;100.00
14273;BME280;7220;49.450;11.052;2023-01-28T07:07:33;98934.31;;;1.51;100.00
14273;BME280;7220;49.450;11.052;2023-01-28T07:11:34;98943.91;;;1.52;100.00
14273;BME280;7220;49.450;11.052;2023-01-28T07:15:34;98935.22;;;1.48;100.00
14273;BME280;7220;49.450;11.052;2023-01-28T07:19:35;98936.94;;;1.48;100.00
14273;BME280;7220;49.450;11.052;2023-01-28T07:23:35;98943.88;;;1.55;100.00
14273;BME280;7220;49.450;11.052;2023-01-28T07:27:35;98950.81;;;1.62;100.00
14273;BME280;7220;49.450;11.052;2023-01-28T07:31:36;98949.91;;;1.69;100.00
14273;BME280;7220;49.450;11.052;2023-01-28T07:35:36;98943.75;;;1.77;100.00
14273;BME280;7220;49.450;11.052;2023-01-28T07:39:36;98941.94;;;1.85;100.00
14273;BME280;7220;49.450;11.052;2023-01-28T07:43:36;98956.97;;;1.58;100.00
14273;BME280;7220;49.450;11.052;2023-01-28T07:47:37;98956.09;;;1.53;100.00
14273;BME280;7220;49.450;11.052;2023-01-28T07:51:37;98956.97;;;1.58;100.00
14273;BME280;7220;49.450;11.052;2023-01-28T07:55:37;98962.19;;;1.61;100.00
14273;BME280;7220;49.450;11.052;2023-01-28T07:59:38;98959.56;;;1.67;100.00
14273;BME280;7220;49.450;11.052;2023-01-28T08:03:38;98960.44;;;1.62;100.00
14273;BME280;7220;49.450;11.052;2023-01-28T08:07:38;98963.88;;;1.71;100.00
14273;BME280;7220;49.450;11.052;2023-01-28T08:11:39;98956.00;;;1.73;100.00
14273;BME280;7220;49.450;11.052;2023-01-28T08:15:40;98973.50;;;1.72;100.00
14273;BME280;7220;49.450;11.052;2023-01-28T08:19:40;98971.69;;;1.84;100.00
14273;BME280;7220;49.450;11.052;2023-01-28T08:23:40;98975.19;;;1.77;100.00
14273;BME280;7220;49.450;11.052;2023-01-28T08:27:41;98980.47;;;1.73;100.00
14273;BME280;7220;49.450;11.052;2023-01-28T08:31:41;98977.78;;;1.86;100.00
14273;BME280;7220;49.450;11.052;2023-01-28T08:35:42;98976.00;;;1.91;100.00
14273;BME280;7220;49.450;11.052;2023-01-28T08:39:42;98975.13;;;1.92;100.00
14273;BME280;7220;49.450;11.052;2023-01-28T08:43:43;98978.63;;;1.91;100.00
14273;BME280;7220;49.450;11.052;2023-01-28T08:48:05;98980.25;;;2.11;100.00
14273;BME280;7220;49.450;11.052;2023-01-28T08:52:05;98980.13;;;2.29;100.00
14273;BME280;7220;49.450;11.052;2023-01-28T08:56:06;98976.53;;;2.38;100.00
14273;BME280;7220;49.450;11.052;2023-01-28T09:00:07;98983.50;;;2.44;99.38
14273;BME280;7220;49.450;11.052;2023-01-28T09:04:09;98988.75;;;2.41;99.18
14273;BME280;7220;49.450;11.052;2023-01-28T09:08:12;98980.00;;;2.45;98.90
14273;BME280;7220;49.450;11.052;2023-01-28T09:12:13;98984.34;;;2.46;98.49
14273;BME280;7220;49.450;11.052;2023-01-28T09:16:13;98983.47;;;2.47;97.17
14273;BME280;7220;49.450;11.052;2023-01-28T09:20:13;98991.41;;;2.38;96.89
14273;BME280;7220;49.450;11.052;2023-01-28T09:24:14;98988.75;;;2.44;95.87
14273;BME280;7220;49.450;11.052;2023-01-28T09:28:14;98999.22;;;2.44;95.68
14273;BME280;7220;49.450;11.052;2023-01-28T09:32:14;98998.25;;;2.56;94.81
14273;BME280;7220;49.450;11.052;2023-01-28T09:36:15;99014.84;;;2.59;93.67
14273;BME280;7220;49.450;11.052;2023-01-28T09:40:29;99014.00;;;2.57;93.45
14273;BME280;7220;49.450;11.052;2023-01-28T09:48:37;99021.91;;;2.51;93.00
14273;BME280;7220;49.450;11.052;2023-01-28T09:52:40;99028.03;;;2.50;92.08
14273;BME280;7220;49.450;11.052;2023-01-28T09:56:44;99030.72;;;2.41;92.16
14273;BME280;7220;49.450;11.052;2023-01-28T10:09:35;99028.81;;;2.64;91.06
14273;BME280;7220;49.450;11.052;2023-01-28T10:14:04;99020.03;;;2.68;89.87
14273;BME280;7220;49.450;11.052;2023-01-28T10:18:10;99018.28;;;2.71;89.41
14273;BME280;7220;49.450;11.052;2023-01-28T10:22:21;99017.34;;;2.75;89.16
14273;BME280;7220;49.450;11.052;2023-01-28T10:26:25;99020.78;;;2.81;88.32
14273;BME280;7220;49.450;11.052;2023-01-28T10:30:33;99023.38;;;2.86;88.02
14273;BME280;7220;49.450;11.052;2023-01-28T10:34:36;99016.31;;;2.91;87.89
14273;BME280;7220;49.450;11.052;2023-01-28T10:38:36;99018.88;;;2.97;87.64
14273;BME280;7220;49.450;11.052;2023-01-28T10:42:37;99013.53;;;3.10;86.46
14273;BME280;7220;49.450;11.052;2023-01-28T10:46:38;98996.72;;;3.23;86.89
14273;BME280;7220;49.450;11.052;2023-01-28T10:50:49;98998.31;;;3.40;85.45
14273;BME280;7220;49.450;11.052;2023-01-28T10:55:04;99002.56;;;3.50;84.88
14273;BME280;7220;49.450;11.052;2023-01-28T11:03:27;99015.59;;;3.58;83.72
14273;BME280;7220;49.450;11.052;2023-01-28T11:07:29;99013.06;;;3.50;83.23
14273;BME280;7220;49.450;11.052;2023-01-28T11:11:30;99013.97;;;3.49;83.33
14273;BME280;7220;49.450;11.052;2023-01-28T11:15:31;99024.50;;;3.46;82.79
14273;BME280;7220;49.450;11.052;2023-01-28T11:19:35;99016.66;;;3.44;82.51
14273;BME280;7220;49.450;11.052;2023-01-28T11:23:40;99017.50;;;3.45;82.48
14273;BME280;7220;49.450;11.052;2023-01-28T11:27:51;99023.66;;;3.42;82.20
14273;BME280;7220;49.450;11.052;2023-01-28T11:31:53;99027.19;;;3.41;81.64
14273;BME280;7220;49.450;11.052;2023-01-28T11:36:11;99026.31;;;3.41;81.58
14273;BME280;7220;49.450;11.052;2023-01-28T11:40:16;99020.31;;;3.29;81.90
14273;BME280;7220;49.450;11.052;2023-01-28T11:44:21;99028.16;;;3.33;83.22
14273;BME280;7220;49.450;11.052;2023-01-28T11:53:22;99023.66;;;3.44;81.29
14273;BME280;7220;49.450;11.052;2023-01-28T11:57:41;99020.19;;;3.42;80.69
14273;BME280;7220;49.450;11.052;2023-01-28T12:02:01;99013.06;;;3.52;80.04
14273;BME280;7220;49.450;11.052;2023-01-28T12:06:13;99005.13;;;3.53;79.13
14273;BME280;7220;49.450;11.052;2023-01-28T12:14:42;99015.78;;;3.44;79.74
14273;BME280;7220;49.450;11.052;2023-01-28T12:19:02;99012.28;;;3.42;79.94
14273;BME280;7220;49.450;11.052;2023-01-28T12:32:35;99022.31;;;3.07;80.82
14273;BME280;7220;49.450;11.052;2023-01-28T12:36:53;99009.28;;;2.96;81.03
14273;BME280;7220;49.450;11.052;2023-01-28T12:41:02;99017.19;;;2.90;80.80
14273;BME280;7220;49.450;11.052;2023-01-28T12:49:27;99012.06;;;2.78;81.22
14273;BME280;7220;49.450;11.052;2023-01-28T12:53:39;99014.66;;;2.81;81.21
14273;BME280;7220;49.450;11.052;2023-01-28T12:57:42;99002.41;;;2.83;80.32
14273;BME280;7220;49.450;11.052;2023-01-28T13:02:04;99005.00;;;2.84;80.83
14273;BME280;7220;49.450;11.052;2023-01-28T13:06:15;99011.13;;;2.88;80.16
14273;BME280;7220;49.450;11.052;2023-01-28T13:10:29;99010.13;;;3.00;79.93
14273;BME280;7220;49.450;11.052;2023-01-28T13:14:32;99011.13;;;2.85;80.27
14273;BME280;7220;49.450;11.052;2023-01-28T13:22:36;99005.75;;;2.97;79.66
14273;BME280;7220;49.450;11.052;2023-01-28T13:26:41;99003.91;;;3.09;79.44
14273;BME280;7220;49.450;11.052;2023-01-28T13:30:48;99000.19;;;3.28;79.39
14273;BME280;7220;49.450;11.052;2023-01-28T13:35:01;99007.03;;;3.42;79.12
14273;BME280;7220;49.450;11.052;2023-01-28T13:39:23;99024.63;;;3.35;77.90
14273;BME280;7220;49.450;11.052;2023-01-28T13:47:36;99022.88;;;3.36;77.45
14273;BME280;7220;49.450;11.052;2023-01-28T13:51:37;99021.22;;;3.28;77.23
14273;BME280;7220;49.450;11.052;2023-01-28T13:55:38;99031.06;;;3.06;78.03
14273;BME280;7220;49.450;11.052;2023-01-28T14:00:07;99031.03;;;3.11;78.06
14273;BME280;7220;49.450;11.052;2023-01-28T14:04:50;99029.22;;;3.16;77.42
14273;BME280;7220;49.450;11.052;2023-01-28T14:09:35;99049.41;;;3.11;77.12
14273;BME280;7220;49.450;11.052;2023-01-28T14:18:37;99039.00;;;2.98;77.34
14273;BME280;7220;49.450;11.052;2023-01-28T14:22:40;99043.53;;;2.82;77.83
14273;BME280;7220;49.450;11.052;2023-01-28T14:26:55;99055.84;;;2.73;78.77
14273;BME280;7220;49.450;11.052;2023-01-28T14:31:05;99053.22;;;2.73;78.37
14273;BME280;7220;49.450;11.052;2023-01-28T14:35:08;99067.34;;;2.59;78.83
14273;BME280;7220;49.450;11.052;2023-01-28T14:39:17;99076.97;;;2.56;78.72
14273;BME280;7220;49.450;11.052;2023-01-28T14:43:24;99077.00;;;2.51;79.58
14273;BME280;7220;49.450;11.052;2023-01-28T14:52:15;99086.78;;;2.30;79.58
14273;BME280;7220;49.450;11.052;2023-01-28T15:00:52;99092.06;;;2.26;79.70
14273;BME280;7220;49.450;11.052;2023-01-28T15:04:53;99092.97;;;2.18;80.55
14273;BME280;7220;49.450;11.052;2023-01-28T15:09:07;99093.84;;;2.16;80.30
14273;BME280;7220;49.450;11.052;2023-01-28T15:13:16;99106.06;;;2.17;80.58
14273;BME280;7220;49.450;11.052;2023-01-28T15:17:23;99099.97;;;2.13;80.23
14273;BME280;7220;49.450;11.052;2023-01-28T15:21:27;99109.63;;;2.03;80.80
14273;BME280;7220;49.450;11.052;2023-01-28T15:25:28;99114.03;;;1.98;80.96
14273;BME280;7220;49.450;11.052;2023-01-28T15:29:35;99120.16;;;1.93;81.46
14273;BME280;7220;49.450;11.052;2023-01-28T15:33:35;99126.34;;;1.68;82.43
14273;BME280;7220;49.450;11.052;2023-01-28T15:37:36;99123.75;;;1.62;82.90
14273;BME280;7220;49.450;11.052;2023-01-28T15:41:39;99126.38;;;1.57;83.10
14273;BME280;7220;49.450;11.052;2023-01-28T15:45:45;99122.00;;;1.61;83.09
14273;BME280;7220;49.450;11.052;2023-01-28T15:49:49;99132.50;;;1.55;82.73
14273;BME280;7220;49.450;11.052;2023-01-28T15:54:04;99137.78;;;1.52;83.08
14273;BME280;7220;49.450;11.052;2023-01-28T16:02:22;99155.22;;;1.47;83.19
14273;BME280;7220;49.450;11.052;2023-01-28T16:06:30;99158.72;;;1.46;83.09
14273;BME280;7220;49.450;11.052;2023-01-28T16:10:31;99158.72;;;1.46;82.93
14273;BME280;7220;49.450;11.052;2023-01-28T16:14:44;99158.75;;;1.24;84.17
14273;BME280;7220;49.450;11.052;2023-01-28T16:18:48;99163.97;;;1.21;83.58
14273;BME280;7220;49.450;11.052;2023-01-28T16:23:00;99156.13;;;1.22;83.51
14273;BME280;7220;49.450;11.052;2023-01-28T16:27:03;99170.09;;;1.20;84.31
14273;BME280;7220;49.450;11.052;2023-01-28T16:31:05;99158.72;;;1.16;84.48
14273;BME280;7220;49.450;11.052;2023-01-28T16:35:17;99161.34;;;1.21;83.76
14273;BME280;7220;49.450;11.052;2023-01-28T16:39:17;99173.59;;;1.20;83.73
14273;BME280;7220;49.450;11.052;2023-01-28T16:43:17;99171.81;;;1.25;83.93
14273;BME280;7220;49.450;11.052;2023-01-28T16:47:18;99171.84;;;1.33;82.87
14273;BME280;7220;49.450;11.052;2023-01-28T16:51:18;99153.47;;;1.36;82.71
14273;BME280;7220;49.450;11.052;2023-01-28T16:55:20;99163.13;;;1.08;83.77
14273;BME280;7220;49.450;11.052;2023-01-28T16:59:21;99160.50;;;1.16;83.04
14273;BME280;7220;49.450;11.052;2023-01-28T17:03:22;99150.91;;;0.96;83.95
14273;BME280;7220;49.450;11.052;2023-01-28T17:07:22;99150.03;;;1.00;83.58
14273;BME280;7220;49.450;11.052;2023-01-28T17:11:27;99166.56;;;0.81;84.21
14273;BME280;7220;49.450;11.052;2023-01-28T17:15:27;99163.97;;;0.84;84.77
14273;BME280;7220;49.450;11.052;2023-01-28T17:19:28;99166.59;;;0.99;83.79
14273;BME280;7220;49.450;11.052;2023-01-28T17:23:28;99169.22;;;1.05;83.89
14273;BME280;7220;49.450;11.052;2023-01-28T17:27:28;99162.25;;;0.95;84.44
14273;BME280;7220;49.450;11.052;2023-01-28T17:31:29;99157.88;;;1.05;83.90
14273;BME280;7220;49.450;11.052;2023-01-28T17:35:29;99170.09;;;1.09;84.05
14273;BME280;7220;49.450;11.052;2023-01-28T17:39:30;99178.81;;;1.14;83.53
14273;BME280;7220;49.450;11.052;2023-01-28T17:43:30;99190.19;;;1.18;83.64
14273;BME280;7220;49.450;11.052;2023-01-28T17:47:31;99198.88;;;1.14;83.14
14273;BME280;7220;49.450;11.052;2023-01-28T17:51:31;99197.13;;;1.22;82.73
14273;BME280;7220;49.450;11.052;2023-01-28T17:55:34;99198.00;;;0.91;83.79
14273;BME280;7220;49.450;11.052;2023-01-28T17:59:35;99197.13;;;0.97;83.61
14273;BME280;7220;49.450;11.052;2023-01-28T18:03:35;99187.53;;;0.94;83.73
14273;BME280;7220;49.450;11.052;2023-01-28T18:07:35;99185.78;;;0.93;83.84
14273;BME280;7220;49.450;11.052;2023-01-28T18:11:36;99189.25;;;0.92;83.90
14273;BME280;7220;49.450;11.052;2023-01-28T18:15:36;99188.41;;;0.92;83.91
14273;BME280;7220;49.450;11.052;2023-01-28T18:19:36;99216.31;;;0.93;83.97
14273;BME280;7220;49.450;11.052;2023-01-28T18:23:37;99197.13;;;0.91;83.46
14273;BME280;7220;49.450;11.052;2023-01-28T18:27:37;99206.72;;;0.90;83.16
14273;BME280;7220;49.450;11.052;2023-01-28T18:31:37;99228.53;;;0.88;83.26
14273;BME280;7220;49.450;11.052;2023-01-28T18:35:45;99218.00;;;0.72;83.89
14273;BME280;7220;49.450;11.052;2023-01-28T18:39:46;99218.06;;;0.78;83.47
14273;BME280;7220;49.450;11.052;2023-01-28T18:43:46;99228.50;;;0.77;83.21
14273;BME280;7220;49.450;11.052;2023-01-28T18:47:46;99235.44;;;0.67;83.20
14273;BME280;7220;49.450;11.052;2023-01-28T18:51:48;99245.94;;;0.70;82.87
14273;BME280;7220;49.450;11.052;2023-01-28T18:55:48;99249.31;;;0.44;83.65
14273;BME280;7220;49.450;11.052;2023-01-28T18:59:49;99243.22;;;0.41;83.34
14273;BME280;7220;49.450;11.052;2023-01-28T19:03:49;99245.72;;;0.18;83.50
14273;BME280;7220;49.450;11.052;2023-01-28T19:07:49;99255.22;;;0.03;84.46
14273;BME280;7220;49.450;11.052;2023-01-28T19:11:50;99257.84;;;0.03;84.38
14273;BME280;7220;49.450;11.052;2023-01-28T19:15:50;99254.38;;;0.10;84.23
14273;BME280;7220;49.450;11.052;2023-01-28T19:19:50;99257.91;;;0.15;83.96
14273;BME280;7220;49.450;11.052;2023-01-28T19:23:55;99271.78;;;0.05;84.16
14273;BME280;7220;49.450;11.052;2023-01-28T19:27:56;99268.31;;;0.09;83.68
14273;BME280;7220;49.450;11.052;2023-01-28T19:31:56;99271.81;;;0.11;83.55
14273;BME280;7220;49.450;11.052;2023-01-28T19:35:57;99270.97;;;0.12;83.25
14273;BME280;7220;49.450;11.052;2023-01-28T19:39:58;99270.88;;;-0.03;83.55
14273;BME280;7220;49.450;11.052;2023-01-28T19:43:58;99259.53;;;-0.07;83.69
14273;BME280;7220;49.450;11.052;2023-01-28T19:47:59;99267.38;;;-0.05;83.50
14273;BME280;7220;49.450;11.052;2023-01-28T19:51:59;99264.75;;;-0.05;83.26
14273;BME280;7220;49.450;11.052;2023-01-28T19:56:01;99260.41;;;-0.05;83.13
14273;BME280;7220;49.450;11.052;2023-01-28T20:00:02;99261.25;;;-0.10;82.83
14273;BME280;7220;49.450;11.052;2023-01-28T20:04:03;99255.06;;;-0.22;83.23
14273;BME280;7220;49.450;11.052;2023-01-28T20:08:04;99265.47;;;-0.28;83.11
14273;BME280;7220;49.450;11.052;2023-01-28T20:12:04;99272.44;;;-0.28;82.95
14273;BME280;7220;49.450;11.052;2023-01-28T20:16:06;99285.50;;;-0.25;83.14
14273;BME280;7220;49.450;11.052;2023-01-28T20:20:07;99312.53;;;-0.25;83.12
14273;BME280;7220;49.450;11.052;2023-01-28T20:24:13;99330.78;;;-0.29;82.99
14273;BME280;7220;49.450;11.052;2023-01-28T20:28:13;99335.06;;;-0.38;83.39
14273;BME280;7220;49.450;11.052;2023-01-28T20:32:14;99360.31;;;-0.35;83.27
14273;BME280;7220;49.450;11.052;2023-01-28T20:36:14;99341.09;;;-0.42;83.25
14273;BME280;7220;49.450;11.052;2023-01-28T20:40:14;99345.47;;;-0.41;83.10
14273;BME280;7220;49.450;11.052;2023-01-28T20:44:15;99358.53;;;-0.42;83.76
14273;BME280;7220;49.450;11.052;2023-01-28T20:48:15;99345.56;;;-0.33;83.47
